Time;durP1;ratioP1;P1;durP2;ratioP2;P2;SDS_P1;SDS_P2;PMS_P1;PMS_P2;Temp;Humidity;BMP_temperature;BMP_pressure;BME280_temperature;BME280_humidity;BME280_pressure;Samples;Min_cycle;Max_cycle;Signal;HPM_P1;HPM_P2
2023/01/07 00:01:11;;;;;;;11.30;5.88;;;;;;;9.58;100.00;101551.13;5101657;28;20558;-79
2023/01/07 00:03:37;;;;;;;10.98;5.45;;;;;;;9.58;100.00;101551.13;5100702;28;20066;-80
2023/01/07 00:06:08;;;;;;;13.02;6.07;;;;;;;9.58;100.00;101549.28;5102550;28;20036;-80
2023/01/07 00:08:35;;;;;;;12.27;5.82;;;;;;;9.57;100.00;101550.28;5099580;28;20416;-80
2023/01/07 00:11:02;;;;;;;11.30;6.32;;;;;;;9.53;100.00;101543.63;5099809;28;20058;-80
2023/01/07 00:13:28;;;;;;;11.65;6.40;;;;;;;9.53;100.00;101545.47;5098482;28;20012;-80
2023/01/07 00:16:04;;;;;;;10.27;5.63;;;;;;;9.54;100.00;101540.00;5101713;28;20034;-79
2023/01/07 00:18:29;;;;;;;10.38;6.30;;;;;;;9.55;100.00;101548.81;5100980;28;20020;-80
2023/01/07 00:20:59;;;;;;;11.45;6.22;;;;;;;9.55;100.00;101543.47;5100522;28;20036;-80
2023/01/07 00:23:26;;;;;;;11.60;5.65;;;;;;;9.56;100.00;101542.47;5097703;28;20028;-79
2023/01/07 00:25:51;;;;;;;13.45;6.30;;;;;;;9.52;100.00;101538.50;5102710;28;20039;-80
2023/01/07 00:28:17;;;;;;;9.90;5.18;;;;;;;9.53;100.00;101548.97;5102982;28;20085;-80
2023/01/07 00:30:43;;;;;;;9.40;4.70;;;;;;;9.55;100.00;101540.81;5103717;28;20118;-80
2023/01/07 00:33:12;;;;;;;10.57;5.30;;;;;;;9.51;100.00;101540.34;5104013;28;20111;-80
2023/01/07 00:35:37;;;;;;;9.95;5.22;;;;;;;9.51;100.00;101543.00;5102882;28;20390;-79
2023/01/07 00:38:03;;;;;;;9.65;5.32;;;;;;;9.51;100.00;101544.81;5103361;28;20085;-80
2023/01/07 00:40:30;;;;;;;11.38;5.32;;;;;;;9.48;100.00;101532.66;5102779;28;20466;-80
2023/01/07 00:43:03;;;;;;;11.27;5.28;;;;;;;9.48;100.00;101527.34;5103724;28;20142;-80
2023/01/07 00:45:31;;;;;;;10.50;5.60;;;;;;;9.47;100.00;101523.03;5103756;28;20510;-82
2023/01/07 00:47:57;;;;;;;10.15;5.72;;;;;;;9.44;100.00;101524.22;5102702;28;20032;-79
2023/01/07 00:50:26;;;;;;;11.32;5.00;;;;;;;9.48;100.00;101531.84;5103300;28;20032;-80
2023/01/07 00:52:52;;;;;;;9.30;4.55;;;;;;;9.42;100.00;101525.38;5103972;28;20360;-80
2023/01/07 00:55:18;;;;;;;11.35;5.88;;;;;;;9.35;100.00;101513.75;5105356;28;20078;-80
2023/01/07 00:57:44;;;;;;;10.88;5.15;;;;;;;9.32;100.00;101511.44;5104175;28;20110;-79
2023/01/07 01:00:12;;;;;;;9.70;4.65;;;;;;;9.25;100.00;101506.00;5102730;28;20978;-80
2023/01/07 01:02:37;;;;;;;10.10;4.93;;;;;;;9.19;100.00;101504.00;5102295;28;20424;-80
2023/01/07 01:05:03;;;;;;;10.32;4.47;;;;;;;9.19;100.00;101498.66;5103211;28;20028;-80
2023/01/07 01:07:29;;;;;;;10.90;5.47;;;;;;;9.17;100.00;101504.19;5106024;28;20035;-80
2023/01/07 01:09:54;;;;;;;11.23;5.68;;;;;;;9.09;100.00;101493.56;5103875;28;20038;-80
2023/01/07 01:12:19;;;;;;;8.18;4.05;;;;;;;9.14;100.00;101496.53;5103733;28;20496;-80
2023/01/07 01:14:45;;;;;;;8.65;4.47;;;;;;;9.17;100.00;101496.19;5102535;28;21074;-79
2023/01/07 01:17:10;;;;;;;8.68;5.35;;;;;;;9.16;100.00;101486.53;5103184;28;20040;-80
2023/01/07 01:19:36;;;;;;;10.43;4.95;;;;;;;9.13;100.00;101488.72;5101808;28;20383;-80
2023/01/07 01:22:01;;;;;;;10.15;5.05;;;;;;;9.10;100.00;101494.38;5102210;28;20119;-80
2023/01/07 01:24:27;;;;;;;10.02;4.80;;;;;;;9.09;100.00;101492.72;5103022;28;20040;-79
2023/01/07 01:26:52;;;;;;;9.13;5.18;;;;;;;9.05;100.00;101488.75;5104856;28;20035;-79
2023/01/07 01:29:18;;;;;;;8.95;4.53;;;;;;;8.99;100.00;101472.47;5102139;28;20032;-80
2023/01/07 01:31:43;;;;;;;8.55;4.40;;;;;;;9.04;100.00;101476.44;5099934;28;20036;-80
2023/01/07 01:34:09;;;;;;;8.68;4.05;;;;;;;9.01;100.00;101480.25;5101991;28;20027;-80
2023/01/07 01:36:34;;;;;;;10.68;4.97;;;;;;;8.99;100.00;101471.66;5101762;28;20067;-80
2023/01/07 01:38:59;;;;;;;14.00;5.38;;;;;;;8.97;100.00;101476.31;5102885;28;20035;-80
2023/01/07 01:41:25;;;;;;;11.20;5.88;;;;;;;8.93;100.00;101475.81;5104983;28;20465;-80
2023/01/07 01:43:50;;;;;;;9.00;4.30;;;;;;;8.95;100.00;101467.66;5103491;28;20051;-79
2023/01/07 01:46:27;;;;;;;7.85;4.55;;;;;;;8.93;100.00;101470.50;5103567;28;20019;-79
2023/01/07 01:48:59;;;;;;;9.40;4.65;;;;;;;8.95;100.00;101467.66;5101881;28;20032;-80
2023/01/07 01:51:27;;;;;;;12.25;5.05;;;;;;;8.92;100.00;101468.00;5103211;28;20024;-80
2023/01/07 01:53:54;;;;;;;6.43;4.35;;;;;;;8.91;100.00;101474.31;5100496;28;20076;-79
2023/01/07 01:56:25;;;;;;;8.98;4.88;;;;;;;8.86;100.00;101474.84;5103768;28;20023;-79
2023/01/07 01:59:12;;;;;;;10.82;5.38;;;;;;;8.88;100.00;101478.16;5102665;28;20028;-80
2023/01/07 02:01:38;;;;;;;14.70;5.85;;;;;;;8.88;100.00;101477.31;5101769;28;20110;-80
2023/01/07 02:04:08;;;;;;;9.77;5.25;;;;;;;8.88;100.00;101477.31;5100919;28;20177;-79
2023/01/07 02:06:39;;;;;;;9.15;4.78;;;;;;;8.86;100.00;101471.34;5099436;28;20136;-79
2023/01/07 02:09:04;;;;;;;8.15;3.90;;;;;;;8.86;100.00;101466.84;5103514;28;20043;-80
2023/01/07 02:11:37;;;;;;;9.55;4.47;;;;;;;8.80;100.00;101454.22;5100657;28;20032;-80
2023/01/07 02:14:26;;;;;;;10.73;5.05;;;;;;;8.86;100.00;101477.50;5101054;28;20031;-80
2023/01/07 02:17:07;;;;;;;20.88;6.18;;;;;;;8.89;100.00;101468.34;5098867;28;20024;-80
2023/01/07 02:19:32;;;;;;;9.63;5.03;;;;;;;8.93;100.00;101473.16;5084136;28;20035;-79
2023/01/07 02:22:06;;;;;;;8.43;4.70;;;;;;;8.94;100.00;101474.00;5099734;28;20558;-79
2023/01/07 02:24:54;;;;;;;9.45;3.88;;;;;;;8.93;100.00;101470.50;5097773;28;20641;-80
2023/01/07 02:27:26;;;;;;;10.05;4.28;;;;;;;8.94;100.00;101471.31;5117783;27;20070;-79
2023/01/07 02:30:06;;;;;;;;;;;;;;;8.94;100.00;101455.38;5102349;28;20026;-80
2023/01/07 02:33:03;;;;;;;9.18;4.00;;;;;;;8.90;100.00;101462.00;5102478;28;19921;-79
2023/01/07 02:35:52;;;;;;;10.02;4.43;;;;;;;8.91;100.00;101458.38;5102837;28;20038;-79
2023/01/07 02:38:35;;;;;;;7.93;4.53;;;;;;;8.85;100.00;101461.69;5101347;28;20024;-80
2023/01/07 02:41:18;;;;;;;11.82;5.03;;;;;;;8.89;100.00;101469.16;5101933;28;20071;-79
2023/01/07 02:43:52;;;;;;;9.70;5.03;;;;;;;8.88;100.00;101464.00;5099234;28;20131;-79
2023/01/07 02:46:29;;;;;;;11.52;4.82;;;;;;;8.86;100.00;101455.38;5101771;28;20181;-79
2023/01/07 02:48:59;;;;;;;9.98;3.67;;;;;;;8.87;100.00;101465.00;5100206;28;20020;-79
2023/01/07 02:51:32;;;;;;;6.10;3.78;;;;;;;8.86;100.00;101453.56;5102137;28;20028;-79
2023/01/07 02:53:57;;;;;;;7.07;3.58;;;;;;;8.88;100.00;101456.88;5100487;28;20150;-79
2023/01/07 02:56:26;;;;;;;9.20;3.97;;;;;;;8.88;100.00;101456.03;5103375;28;20028;-78
2023/01/07 02:58:58;;;;;;;8.02;3.80;;;;;;;8.88;100.00;101450.72;5101540;28;20027;-79
2023/01/07 03:01:45;;;;;;;10.88;5.22;;;;;;;8.86;100.00;101453.56;5101176;28;20024;-79
2023/01/07 03:04:48;;;;;;;6.95;3.83;;;;;;;8.84;100.00;101436.09;5100311;28;20059;-79
2023/01/07 03:07:22;;;;;;;10.85;4.95;;;;;;;8.84;100.00;101438.75;5100597;28;20032;-79
2023/01/07 03:10:19;;;;;;;11.40;4.35;;;;;;;8.81;100.00;101433.78;5099399;28;20115;-79
2023/01/07 03:12:51;;;;;;;10.77;4.00;;;;;;;8.80;100.00;101435.59;5090381;28;20048;-79
2023/01/07 03:15:37;;;;;;;11.13;5.80;;;;;;;8.82;100.00;101430.13;5102097;28;20112;-79
2023/01/07 03:18:18;;;;;;;8.38;3.80;;;;;;;8.84;100.00;101425.47;5099746;28;20032;-79
2023/01/07 03:20:47;;;;;;;8.50;4.35;;;;;;;8.90;100.00;101425.59;5101721;28;20024;-79
2023/01/07 03:23:16;;;;;;;7.07;3.83;;;;;;;8.91;100.00;101421.13;5102353;28;20382;-79
2023/01/07 03:25:49;;;;;;;7.55;4.32;;;;;;;8.95;100.00;101415.28;5102260;28;20020;-79
2023/01/07 03:28:18;;;;;;;8.05;3.85;;;;;;;8.98;100.00;101416.75;5101696;28;20023;-79
2023/01/07 03:30:45;;;;;;;8.18;4.13;;;;;;;9.00;100.00;101407.59;5099365;28;20023;-79
2023/01/07 03:33:16;;;;;;;7.50;3.20;;;;;;;9.04;100.00;101408.09;5102084;28;20016;-78
2023/01/07 03:35:46;;;;;;;8.50;4.15;;;;;;;9.00;100.00;101399.63;5101137;28;20028;-79
2023/01/07 03:38:13;;;;;;;7.72;3.45;;;;;;;9.05;100.00;101403.59;5098512;28;20210;-79
2023/01/07 03:40:39;;;;;;;6.75;3.80;;;;;;;9.03;100.00;101397.63;5100599;28;20042;-79
2023/01/07 03:43:11;;;;;;;6.18;3.50;;;;;;;9.03;100.00;101392.31;5100936;28;20459;-79
2023/01/07 03:45:36;;;;;;;6.20;3.15;;;;;;;9.09;100.00;101404.91;5099446;28;20470;-79
2023/01/07 03:48:02;;;;;;;7.97;3.53;;;;;;;9.11;100.00;101389.59;5099156;28;20042;-79
2023/01/07 03:50:27;;;;;;;7.45;4.25;;;;;;;9.12;100.00;101396.59;5101284;28;20032;-79
2023/01/07 03:52:53;;;;;;;9.75;4.05;;;;;;;9.13;100.00;101391.09;5101809;28;20118;-80
2023/01/07 03:55:18;;;;;;;5.22;3.67;;;;;;;9.07;100.00;101383.81;5100225;28;20032;-78
2023/01/07 03:57:44;;;;;;;6.95;3.35;;;;;;;9.15;100.00;101381.09;5101904;28;20028;-79
2023/01/07 04:00:11;;;;;;;12.32;3.35;;;;;;;9.17;100.00;101373.78;5105710;28;20031;-79
2023/01/07 04:02:37;;;;;;;6.43;3.20;;;;;;;9.18;100.00;101371.94;5102409;28;20040;-79
2023/01/07 04:05:02;;;;;;;6.60;3.70;;;;;;;9.18;100.00;101364.78;5105082;28;20024;-79
2023/01/07 04:07:28;;;;;;;8.40;3.35;;;;;;;9.19;100.00;101373.59;5105034;28;20039;-79
2023/01/07 04:09:53;;;;;;;5.40;2.70;;;;;;;9.21;100.00;101367.09;5104546;28;20463;-78
2023/01/07 04:12:18;;;;;;;8.73;3.65;;;;;;;9.26;100.00;101369.22;5105557;28;20135;-80
2023/01/07 04:14:44;;;;;;;3.80;3.03;;;;;;;9.27;100.00;101370.06;5103481;28;20037;-78
2023/01/07 04:17:10;;;;;;;4.40;2.80;;;;;;;9.27;100.00;101364.72;5103927;28;20032;-79
2023/01/07 04:19:37;;;;;;;6.20;3.17;;;;;;;9.26;100.00;101369.22;5104067;28;20024;-79
2023/01/07 04:22:06;;;;;;;8.60;3.47;;;;;;;9.30;100.00;101356.38;5105101;28;20354;-78
2023/01/07 04:24:32;;;;;;;6.85;2.50;;;;;;;9.29;100.00;101350.25;5103649;28;20024;-79
2023/01/07 04:26:57;;;;;;;7.57;3.05;;;;;;;9.32;100.00;101351.72;5103905;28;20089;-79
2023/01/07 04:29:22;;;;;;;6.38;3.25;;;;;;;9.28;100.00;101337.94;5105465;28;20050;-79
2023/01/07 04:31:48;;;;;;;5.35;3.42;;;;;;;9.32;100.00;101344.56;5104854;28;20028;-79
2023/01/07 04:34:14;;;;;;;4.57;2.80;;;;;;;9.32;100.00;101341.91;5102819;28;20445;-79
2023/01/07 04:36:39;;;;;;;6.00;3.40;;;;;;;9.30;100.00;101335.09;5103786;28;20034;-79
2023/01/07 04:39:04;;;;;;;4.97;2.90;;;;;;;9.29;100.00;101331.63;5103763;28;20023;-79
2023/01/07 04:41:30;;;;;;;3.42;2.45;;;;;;;9.31;100.00;101326.13;5104559;28;20020;-79
2023/01/07 04:43:55;;;;;;;6.80;2.85;;;;;;;9.26;100.00;101320.50;5104331;27;20052;-79
2023/01/07 04:46:21;;;;;;;5.88;3.40;;;;;;;9.31;100.00;101326.13;5101812;28;20027;-79
2023/01/07 04:48:46;;;;;;;7.32;3.47;;;;;;;9.23;100.00;101307.56;5105233;28;20027;-79
2023/01/07 04:51:11;;;;;;;7.18;3.63;;;;;;;9.19;100.00;101317.69;5103211;28;20035;-79
2023/01/07 04:53:37;;;;;;;4.18;3.17;;;;;;;9.17;100.00;101317.06;5102911;28;20027;-79
2023/01/07 04:56:05;;;;;;;9.75;3.88;;;;;;;9.11;100.00;101309.78;5103169;28;20482;-79
2023/01/07 04:58:30;;;;;;;5.55;3.17;;;;;;;9.11;100.00;101315.91;5102464;28;20034;-79
2023/01/07 05:00:57;;;;;;;5.63;3.33;;;;;;;9.06;100.00;101312.13;5104666;28;20027;-79
2023/01/07 05:03:23;;;;;;;9.82;3.30;;;;;;;9.02;100.00;101310.84;5106609;28;20032;-79
2023/01/07 05:05:48;;;;;;;3.42;2.70;;;;;;;8.99;100.00;101315.50;5102374;28;20030;-79
2023/01/07 05:08:13;;;;;;;11.18;3.67;;;;;;;8.98;100.00;101313.81;5098407;28;20442;-79
2023/01/07 05:10:39;;;;;;;8.07;3.17;;;;;;;8.99;100.00;101312.00;5100920;28;20023;-78
2023/01/07 05:13:04;;;;;;;5.82;3.25;;;;;;;8.97;100.00;101306.03;5101425;28;20028;-78
2023/01/07 05:15:30;;;;;;;7.15;3.40;;;;;;;8.99;100.00;101317.34;5101909;28;20038;-79
2023/01/07 05:17:55;;;;;;;4.00;2.90;;;;;;;8.96;100.00;101309.69;5103267;28;20038;-78
2023/01/07 05:20:21;;;;;;;4.63;3.13;;;;;;;8.95;100.00;101300.06;5101227;28;20032;-78
2023/01/07 05:22:46;;;;;;;4.95;3.30;;;;;;;8.98;100.00;101305.03;5104926;28;20024;-78
2023/01/07 05:25:11;;;;;;;4.97;2.88;;;;;;;9.02;100.00;101297.53;5105432;28;20474;-78
2023/01/07 05:27:37;;;;;;;6.88;2.95;;;;;;;9.07;100.00;101297.84;5105298;28;20094;-79
2023/01/07 05:30:03;;;;;;;4.63;3.05;;;;;;;9.07;100.00;101293.34;5101224;28;20063;-78
2023/01/07 05:32:28;;;;;;;8.27;4.45;;;;;;;9.12;100.00;101292.81;5101864;28;20028;-79
2023/01/07 05:34:54;;;;;;;4.95;2.60;;;;;;;9.14;100.00;101294.31;5103739;28;20031;-79
2023/01/07 05:37:19;;;;;;;5.50;2.83;;;;;;;9.15;100.00;101295.94;5104588;28;20126;-78
2023/01/07 05:39:44;;;;;;;7.47;3.30;;;;;;;9.15;100.00;101284.47;5084995;28;20046;-79
2023/01/07 05:42:10;;;;;;;3.55;2.90;;;;;;;9.16;100.00;101294.94;5102472;28;20039;-78
2023/01/07 05:44:35;;;;;;;5.03;2.90;;;;;;;9.17;100.00;101290.47;5103737;28;20110;-79
2023/01/07 05:47:00;;;;;;;8.23;3.97;;;;;;;9.17;100.00;101288.63;5102887;28;20050;-78
2023/01/07 05:49:26;;;;;;;5.22;2.80;;;;;;;9.21;100.00;101292.56;5101698;28;20019;-79
2023/01/07 05:51:51;;;;;;;4.78;2.95;;;;;;;9.23;100.00;101291.59;5102506;28;20028;-79
2023/01/07 05:54:16;;;;;;;10.75;3.03;;;;;;;9.23;100.00;101291.59;5102553;28;20124;-78
2023/01/07 05:56:42;;;;;;;4.25;2.60;;;;;;;9.22;100.00;101282.75;5102457;28;20501;-78
2023/01/07 05:59:07;;;;;;;4.55;2.63;;;;;;;9.24;100.00;101285.25;5099000;28;20402;-79
2023/01/07 06:01:33;;;;;;;5.35;2.78;;;;;;;9.25;100.00;101285.06;5100079;28;20035;-78
2023/01/07 06:03:58;;;;;;;4.68;2.83;;;;;;;9.27;100.00;101283.03;5102382;28;20080;-79
2023/01/07 06:06:23;;;;;;;7.43;2.70;;;;;;;9.29;100.00;101274.91;5084691;28;20039;-79
2023/01/07 06:08:49;;;;;;;3.65;1.88;;;;;;;9.31;100.00;101275.56;5099412;28;20088;-78
2023/01/07 06:11:14;;;;;;;4.45;2.35;;;;;;;9.32;100.00;101261.22;5099514;28;20079;-78
2023/01/07 06:13:39;;;;;;;6.43;3.42;;;;;;;9.31;100.00;101262.25;5105771;27;20020;-78
2023/01/07 06:16:08;;;;;;;2.45;2.10;;;;;;;9.32;100.00;101264.72;5100090;28;20044;-78
2023/01/07 06:18:34;;;;;;;4.78;2.25;;;;;;;9.31;100.00;101260.41;5099636;28;20036;-80
2023/01/07 06:21:00;;;;;;;2.83;1.73;;;;;;;9.33;100.00;101263.72;5105775;28;20027;-77
2023/01/07 06:23:25;;;;;;;4.63;2.17;;;;;;;9.34;100.00;101264.53;5100218;28;20026;-78
2023/01/07 06:25:51;;;;;;;3.97;2.00;;;;;;;9.33;100.00;101261.06;5097140;28;20040;-78
2023/01/07 06:28:16;;;;;;;4.15;2.67;;;;;;;9.34;100.00;101248.56;5104272;28;20431;-78
2023/01/07 06:30:45;;;;;;;2.75;2.13;;;;;;;9.31;100.00;101244.44;5097154;28;20497;-80
2023/01/07 06:33:12;;;;;;;3.63;2.20;;;;;;;9.32;100.00;101243.41;5101726;28;20020;-78
2023/01/07 06:35:37;;;;;;;4.93;2.30;;;;;;;9.32;100.00;101237.28;5109214;28;20035;-72
2023/01/07 06:38:03;;;;;;;2.47;1.88;;;;;;;9.32;100.00;101240.75;5110698;28;20087;-71
2023/01/07 06:40:28;;;;;;;5.78;2.55;;;;;;;9.29;100.00;101232.31;5110687;28;20102;-72
2023/01/07 06:42:53;;;;;;;4.00;2.47;;;;;;;9.30;100.00;101233.94;5110238;28;20491;-72
2023/01/07 06:45:19;;;;;;;5.00;3.67;;;;;;;9.29;100.00;101233.13;5110551;28;20372;-71
2023/01/07 06:47:44;;;;;;;5.20;2.95;;;;;;;9.30;100.00;101225.97;5110591;28;20031;-71
2023/01/07 06:50:10;;;;;;;2.67;1.73;;;;;;;9.29;100.00;101227.81;5109353;28;20023;-72
2023/01/07 06:52:35;;;;;;;4.45;2.03;;;;;;;9.28;100.00;101225.34;5110383;28;20024;-71
2023/01/07 06:55:01;;;;;;;3.92;2.30;;;;;;;9.30;100.00;101221.50;5110369;28;20031;-71
2023/01/07 06:57:26;;;;;;;2.05;1.70;;;;;;;9.30;100.00;101215.31;5108981;28;20039;-72
2023/01/07 06:59:51;;;;;;;3.47;2.00;;;;;;;9.30;100.00;101208.19;5110147;28;20054;-71
2023/01/07 07:02:21;;;;;;;4.15;1.90;;;;;;;9.28;100.00;101212.84;5108707;28;20110;-72
2023/01/07 07:04:48;;;;;;;4.97;2.40;;;;;;;9.31;100.00;101206.34;5110090;28;20040;-72
2023/01/07 07:07:14;;;;;;;3.97;2.00;;;;;;;9.30;100.00;101212.66;5110124;28;20051;-72
2023/01/07 07:09:39;;;;;;;5.30;2.50;;;;;;;9.31;100.00;101206.34;5108687;28;20929;-72
2023/01/07 07:12:05;;;;;;;3.60;1.90;;;;;;;9.28;100.00;101206.72;5110332;28;20118;-72
2023/01/07 07:14:30;;;;;;;4.10;2.22;;;;;;;9.28;100.00;101210.19;5109969;28;20042;-72
2023/01/07 07:16:56;;;;;;;2.22;1.60;;;;;;;9.23;100.00;101201.09;5109944;28;20087;-72
2023/01/07 07:19:21;;;;;;;2.65;1.90;;;;;;;9.28;100.00;101198.72;5109891;28;20031;-72
2023/01/07 07:21:47;;;;;;;2.50;1.58;;;;;;;9.28;100.00;101199.56;5109807;28;20024;-72
2023/01/07 07:24:12;;;;;;;2.40;2.20;;;;;;;9.28;100.00;101199.56;5110035;28;20031;-71
2023/01/07 07:26:38;;;;;;;2.70;1.63;;;;;;;9.26;100.00;101201.56;5108373;28;20032;-71
2023/01/07 07:29:03;;;;;;;3.65;1.73;;;;;;;9.24;100.00;101198.25;5109771;28;20088;-72
2023/01/07 07:31:28;;;;;;;2.30;1.60;;;;;;;9.21;100.00;101191.44;5109740;28;20028;-72
2023/01/07 07:33:54;;;;;;;1.80;1.48;;;;;;;9.18;100.00;101183.00;5109425;28;20040;-73
2023/01/07 07:36:19;;;;;;;1.67;1.38;;;;;;;9.13;100.00;101180.03;5109758;28;20490;-71
2023/01/07 07:38:44;;;;;;;1.75;1.45;;;;;;;9.12;100.00;101184.53;5109699;28;20039;-73
2023/01/07 07:41:10;;;;;;;3.53;1.73;;;;;;;9.07;100.00;101186.91;5091245;28;20044;-72
2023/01/07 07:43:37;;;;;;;1.83;1.52;;;;;;;9.07;100.00;101181.59;5109354;28;20051;-72
2023/01/07 07:46:02;;;;;;;1.95;1.77;;;;;;;9.04;100.00;101178.44;5109393;28;20067;-72
2023/01/07 07:48:28;;;;;;;2.72;1.52;;;;;;;9.07;100.00;101175.44;5109561;28;20636;-71
2023/01/07 07:50:53;;;;;;;2.45;1.40;;;;;;;9.11;100.00;101179.38;5109414;28;20482;-71
2023/01/07 07:53:19;;;;;;;8.73;1.98;;;;;;;9.10;100.00;101177.75;5108158;28;20070;-71
2023/01/07 07:55:45;;;;;;;2.50;1.48;;;;;;;9.15;100.00;101172.72;5088289;28;20035;-71
2023/01/07 07:58:11;;;;;;;3.58;2.13;;;;;;;9.16;100.00;101171.69;5090288;28;20027;-77
2023/01/07 08:00:36;;;;;;;2.45;1.90;;;;;;;9.16;100.00;101164.53;5109219;28;20027;-72
2023/01/07 08:03:02;;;;;;;2.35;1.70;;;;;;;9.18;100.00;101169.69;5109270;28;20032;-72
2023/01/07 08:05:28;;;;;;;2.20;1.65;;;;;;;9.16;100.00;101159.22;5109226;28;20513;-72
2023/01/07 08:07:54;;;;;;;5.13;1.60;;;;;;;9.24;100.00;101173.47;5109417;28;20522;-72
2023/01/07 08:10:20;;;;;;;2.95;1.90;;;;;;;9.25;100.00;101167.97;5109269;28;20031;-72
2023/01/07 08:12:45;;;;;;;7.18;1.88;;;;;;;9.29;100.00;101166.59;5109261;28;20046;-72
2023/01/07 08:15:11;;;;;;;3.55;1.70;;;;;;;9.33;100.00;101165.22;5109178;28;20382;-72
2023/01/07 08:17:37;;;;;;;3.60;1.80;;;;;;;9.34;100.00;101153.56;5109210;28;20042;-72
2023/01/07 08:20:03;;;;;;;2.95;1.77;;;;;;;9.38;100.00;101162.03;5107943;28;20028;-72
2023/01/07 08:22:29;;;;;;;2.17;1.50;;;;;;;9.41;100.00;101159.00;5107775;28;20062;-72
2023/01/07 08:24:55;;;;;;;2.03;1.67;;;;;;;9.42;100.00;101148.16;5107693;28;20116;-72
2023/01/07 08:27:20;;;;;;;3.85;2.03;;;;;;;9.41;100.00;101143.03;5091077;28;20024;-72
2023/01/07 08:29:46;;;;;;;4.22;1.80;;;;;;;9.47;100.00;101149.47;5089622;28;20035;-73
2023/01/07 08:32:11;;;;;;;4.38;1.90;;;;;;;9.50;100.00;101149.09;5089564;28;20508;-72
2023/01/07 08:34:37;;;;;;;2.45;1.52;;;;;;;9.50;100.00;101144.59;5089576;28;20039;-72
2023/01/07 08:37:02;;;;;;;3.22;2.42;;;;;;;9.53;100.00;101152.22;5092053;28;20023;-72
2023/01/07 08:39:28;;;;;;;3.38;1.77;;;;;;;9.55;100.00;101138.72;5107574;28;20043;-72
2023/01/07 08:41:53;;;;;;;4.50;2.13;;;;;;;9.56;100.00;101146.53;5101466;28;20169;-73
2023/01/07 08:44:19;;;;;;;4.35;2.00;;;;;;;9.55;100.00;101144.06;5108830;28;20050;-73
2023/01/07 08:46:44;;;;;;;2.30;1.83;;;;;;;9.59;100.00;101134.69;5112308;28;20062;-72
2023/01/07 08:49:10;;;;;;;3.03;1.88;;;;;;;9.63;100.00;101141.28;5111609;28;20035;-72
2023/01/07 08:51:36;;;;;;;3.22;2.00;;;;;;;9.65;100.00;101133.97;5113026;28;20050;-73
2023/01/07 08:54:01;;;;;;;2.95;1.70;;;;;;;9.65;100.00;101131.28;5112528;28;20027;-72
2023/01/07 08:56:26;;;;;;;2.03;1.80;;;;;;;9.66;100.00;101131.09;5112617;28;20032;-73
2023/01/07 08:58:52;;;;;;;3.15;1.85;;;;;;;9.69;100.00;101126.41;5113088;28;20111;-72
2023/01/07 09:01:17;;;;;;;6.20;1.75;;;;;;;9.66;100.00;101124.94;5111114;28;20097;-73
2023/01/07 09:03:42;;;;;;;3.13;1.58;;;;;;;9.75;100.00;101136.34;5112258;28;20107;-73
2023/01/07 09:06:08;;;;;;;2.67;1.45;;;;;;;9.73;100.00;101127.72;5111086;28;20044;-73
2023/01/07 09:08:33;;;;;;;1.88;1.50;;;;;;;9.74;100.00;101126.69;5112559;28;20092;-72
2023/01/07 09:10:59;;;;;;;3.40;1.70;;;;;;;9.79;100.00;101122.47;5092928;28;20028;-72
2023/01/07 09:13:24;;;;;;;2.85;1.60;;;;;;;9.82;100.00;101124.78;5091637;28;20456;-73
2023/01/07 09:15:51;;;;;;;3.58;2.35;;;;;;;9.78;100.00;101104.03;5092827;28;20068;-73
2023/01/07 09:18:16;;;;;;;2.85;1.50;;;;;;;9.84;100.00;101119.25;5092628;28;20114;-73
2023/01/07 09:20:42;;;;;;;3.35;1.55;;;;;;;9.86;100.00;101120.72;5091311;28;20099;-73
2023/01/07 09:23:07;;;;;;;3.63;1.70;;;;;;;9.88;100.00;101104.56;5091264;28;20055;-73
2023/01/07 09:25:32;;;;;;;4.40;1.95;;;;;;;9.88;100.00;101099.22;5092468;28;20433;-73
2023/01/07 09:27:58;;;;;;;2.75;1.58;;;;;;;9.92;100.00;101105.00;5092420;28;20039;-73
2023/01/07 09:30:23;;;;;;;2.03;1.52;;;;;;;9.93;100.00;101091.50;5092262;28;20085;-73
2023/01/07 09:32:48;;;;;;;5.47;2.70;;;;;;;9.98;99.88;101097.09;5092350;28;20047;-73
2023/01/07 09:35:14;;;;;;;2.78;1.88;;;;;;;10.05;99.82;101094.50;5099362;28;20460;-73
2023/01/07 09:37:40;;;;;;;3.38;2.10;;;;;;;10.06;99.16;101091.66;5111725;28;20051;-73
2023/01/07 09:40:06;;;;;;;3.03;1.83;;;;;;;10.08;98.96;101089.63;5111623;28;20035;-73
2023/01/07 09:42:38;;;;;;;4.60;1.65;;;;;;;10.09;97.81;101085.94;5104195;27;20071;-73
2023/01/07 09:45:17;;;;;;;2.35;1.60;;;;;;;10.11;99.08;101088.41;5094557;28;20051;-73
2023/01/07 09:47:48;;;;;;;4.25;1.73;;;;;;;10.13;98.11;101083.72;5097055;28;20028;-74
2023/01/07 09:50:19;;;;;;;2.78;2.42;;;;;;;10.18;96.92;101083.16;5096635;28;20028;-73
2023/01/07 09:52:49;;;;;;;3.15;1.63;;;;;;;10.21;97.71;101082.78;5096623;28;20043;-72
2023/01/07 09:55:34;;;;;;;1.83;1.48;;;;;;;10.26;97.30;101091.06;5096141;28;20111;-73
2023/01/07 09:57:59;;;;;;;3.90;1.90;;;;;;;10.24;97.00;101071.75;5095624;28;20393;-72
2023/01/07 10:00:25;;;;;;;2.38;1.60;;;;;;;10.30;97.40;101071.84;5094930;28;20020;-74
2023/01/07 10:03:00;;;;;;;2.00;1.60;;;;;;;10.39;97.37;101069.88;5094530;28;20039;-73
2023/01/07 10:05:48;;;;;;;2.50;1.70;;;;;;;10.49;97.48;101074.91;5094784;28;20023;-74
2023/01/07 10:08:32;;;;;;;1.40;1.30;;;;;;;10.60;95.98;101062.91;5095857;28;20016;-74
2023/01/07 10:11:21;;;;;;;4.82;2.20;;;;;;;10.63;95.76;101051.84;5095148;28;20047;-77
2023/01/07 10:14:35;;;;;;;4.05;2.55;;;;;;;10.70;96.32;101058.06;5096093;28;20047;-73
2023/01/07 10:17:29;;;;;;;4.13;1.92;;;;;;;10.75;95.57;101053.00;5103726;28;20122;-72
2023/01/07 10:20:09;;;;;;;3.72;2.00;;;;;;;10.82;94.92;101039.69;5111093;28;20378;-73
2023/01/07 10:22:38;;;;;;;1.40;1.30;;;;;;;10.78;94.41;101017.91;5110755;28;20451;-72
2023/01/07 10:25:21;;;;;;;1.65;1.55;;;;;;;10.87;94.08;101022.09;5109393;28;20077;-72
2023/01/07 10:27:50;;;;;;;1.98;1.30;;;;;;;10.85;92.27;101008.13;5110837;28;20027;-72
2023/01/07 10:30:27;;;;;;;1.05;0.95;;;;;;;10.85;93.20;101001.97;5110758;28;20020;-72
2023/01/07 10:33:04;;;;;;;1.65;1.13;;;;;;;10.86;90.54;100991.09;5110952;28;20050;-72
2023/01/07 10:35:33;;;;;;;3.30;1.67;;;;;;;10.87;91.87;100986.56;5110870;28;20030;-73
2023/01/07 10:38:02;;;;;;;2.92;1.42;;;;;;;10.93;91.30;100980.47;5110716;28;20036;-74
2023/01/07 10:40:43;;;;;;;1.30;1.20;;;;;;;10.95;90.08;100976.59;5110512;28;21030;-73
2023/01/07 10:43:23;;;;;;;2.08;1.70;;;;;;;11.02;90.51;100970.44;5110391;28;20051;-73
2023/01/07 10:46:16;;;;;;;1.25;1.15;;;;;;;11.09;91.66;100955.31;5110653;28;20058;-73
2023/01/07 10:49:05;;;;;;;2.90;1.48;;;;;;;11.07;87.94;100954.69;5110493;28;20023;-73
2023/01/07 10:51:36;;;;;;;1.40;1.30;;;;;;;11.05;89.29;100962.03;5110395;28;20462;-73
2023/01/07 10:54:18;;;;;;;3.58;2.17;;;;;;;11.05;90.08;100946.84;5110482;28;20026;-73
2023/01/07 10:56:46;;;;;;;;;;;;;;;11.13;91.10;100951.19;5110969;28;20027;-73
2023/01/07 10:59:22;;;;;;;2.38;1.38;;;;;;;11.10;89.00;100947.09;5090781;28;20359;-73
2023/01/07 11:01:59;;;;;;;1.42;1.33;;;;;;;11.12;87.30;100944.22;5089367;28;20032;-73
2023/01/07 11:04:25;;;;;;;1.73;1.30;;;;;;;11.12;86.64;100936.22;5090714;28;20035;-73
2023/01/07 11:07:13;;;;;;;1.98;1.40;;;;;;;11.18;87.57;100927.41;5090753;28;20032;-73
2023/01/07 11:09:45;;;;;;;1.23;1.10;;;;;;;11.19;87.78;100934.41;5090273;28;20367;-73
2023/01/07 11:12:21;;;;;;;2.15;1.40;;;;;;;11.19;87.91;100916.53;5090400;28;20381;-73
2023/01/07 11:14:48;;;;;;;2.38;1.30;;;;;;;11.22;85.97;100922.50;5090685;28;20520;-73
2023/01/07 11:17:38;;;;;;;3.60;1.58;;;;;;;11.16;85.35;100914.28;5090702;28;20393;-73
2023/01/07 11:20:04;;;;;;;5.97;1.70;;;;;;;11.12;84.71;100904.19;5090534;28;20467;-73
2023/01/07 11:22:35;;;;;;;2.30;1.42;;;;;;;11.17;84.42;100923.09;5090273;28;20035;-73
2023/01/07 11:25:20;;;;;;;1.48;1.30;;;;;;;11.19;84.50;100907.72;5090407;28;20020;-73
2023/01/07 11:27:45;;;;;;;2.28;1.42;;;;;;;11.26;84.34;100907.72;5088993;28;20070;-73
2023/01/07 11:30:29;;;;;;;2.22;1.33;;;;;;;11.31;85.55;100902.63;5090360;28;20127;-73
2023/01/07 11:33:01;;;;;;;3.05;1.27;;;;;;;11.29;83.40;100894.81;5090314;28;20031;-73